Time;durP1;ratioP1;P1;durP2;ratioP2;P2;SDS_P1;SDS_P2;PMS_P1;PMS_P2;Temp;Humidity;BMP_temperature;BMP_pressure;BME280_temperature;BME280_humidity;BME280_pressure;Samples;Min_cycle;Max_cycle;Signal;HPM_P1;HPM_P2
2023/12/29 00:01:48;;;;;;;2.80;2.00;;;8.70;99.90;;;;;;4991908;28;20259;-76
2023/12/29 00:04:16;;;;;;;1.73;1.35;;;8.70;99.90;;;;;;4992691;28;20212;-75
2023/12/29 00:06:43;;;;;;;2.33;1.65;;;8.80;99.90;;;;;;4993081;28;20237;-77
2023/12/29 00:09:09;;;;;;;2.10;1.67;;;8.80;99.90;;;;;;4992821;28;20208;-76
2023/12/29 00:11:36;;;;;;;1.30;1.17;;;8.70;99.90;;;;;;4991989;28;20236;-76
2023/12/29 00:14:03;;;;;;;1.83;1.42;;;8.70;99.90;;;;;;4992398;28;20605;-76
2023/12/29 04:32:46;;;;;;;2.20;1.65;;;8.30;99.90;;;;;;5090488;22;20236;-79
2023/12/29 04:35:14;;;;;;;2.20;1.45;;;8.30;99.90;;;;;;5012821;28;20209;-79
2023/12/29 04:37:41;;;;;;;1.75;1.65;;;8.30;99.90;;;;;;5013231;28;20204;-78
2023/12/29 04:40:09;;;;;;;2.40;1.40;;;8.40;99.90;;;;;;5013169;28;20231;-78
2023/12/29 04:42:35;;;;;;;2.35;2.13;;;8.30;99.90;;;;;;4994405;28;20232;-78
2023/12/29 04:45:02;;;;;;;1.98;1.73;;;8.40;99.90;;;;;;4993670;28;20208;-78
2023/12/29 04:47:29;;;;;;;2.45;1.77;;;8.30;99.90;;;;;;4994049;28;20590;-78
2023/12/29 04:49:57;;;;;;;2.53;2.00;;;8.20;99.90;;;;;;4996588;28;20207;-79
2023/12/29 04:52:24;;;;;;;2.78;1.90;;;8.20;99.90;;;;;;5001642;28;20230;-78
2023/12/29 04:54:50;;;;;;;2.80;2.35;;;8.20;99.90;;;;;;5007862;28;20215;-78
2023/12/29 04:57:17;;;;;;;3.63;1.58;;;8.20;99.90;;;;;;5002316;28;20224;-78
2023/12/29 04:59:44;;;;;;;2.08;1.80;;;8.10;99.90;;;;;;5007539;28;20295;-78
2023/12/29 05:02:11;;;;;;;3.65;2.13;;;8.10;99.90;;;;;;5007232;28;20231;-78
2023/12/29 05:04:38;;;;;;;1.70;1.60;;;8.10;99.90;;;;;;5007409;28;20204;-78
2023/12/29 05:07:07;;;;;;;1.80;1.65;;;8.10;99.90;;;;;;5002471;28;20209;-78
2023/12/29 05:09:33;;;;;;;3.47;1.85;;;8.00;99.90;;;;;;4999239;28;20207;-78
2023/12/29 05:12:00;;;;;;;2.40;1.70;;;8.00;99.90;;;;;;4999324;28;20223;-78
2023/12/29 05:14:27;;;;;;;2.42;1.63;;;8.00;99.90;;;;;;5001120;28;20588;-78
2023/12/29 05:16:54;;;;;;;2.05;1.85;;;8.10;99.90;;;;;;4994724;28;20209;-78
2023/12/29 05:19:21;;;;;;;2.13;1.65;;;8.10;99.90;;;;;;4993741;28;20573;-78
2023/12/29 05:21:50;;;;;;;2.42;1.95;;;8.10;99.90;;;;;;4992448;28;20235;-76
2023/12/29 05:24:18;;;;;;;2.22;1.42;;;8.20;99.90;;;;;;4991396;28;20200;-76
2023/12/29 05:26:45;;;;;;;1.88;1.67;;;8.10;99.90;;;;;;4991372;28;20330;-76
2023/12/29 05:29:12;;;;;;;4.32;2.30;;;8.20;99.90;;;;;;4993501;28;20291;-76
2023/12/29 05:31:39;;;;;;;2.33;1.90;;;8.20;99.90;;;;;;4994912;28;20220;-76
2023/12/29 05:34:05;;;;;;;3.00;2.05;;;8.20;99.90;;;;;;4998841;28;20211;-78
2023/12/29 05:36:36;;;;;;;4.75;2.28;;;8.10;99.90;;;;;;5008652;28;20212;-78
2023/12/29 05:39:03;;;;;;;1.70;1.60;;;8.20;99.90;;;;;;4995494;28;20203;-76
2023/12/29 05:41:31;;;;;;;2.55;1.70;;;8.20;99.90;;;;;;4992068;28;20229;-76
2023/12/29 05:43:58;;;;;;;2.15;1.58;;;8.20;99.90;;;;;;4995275;28;20227;-76
2023/12/29 05:46:25;;;;;;;1.88;1.63;;;8.20;99.90;;;;;;4995281;28;20203;-76
2023/12/29 05:48:52;;;;;;;2.17;1.67;;;8.10;99.90;;;;;;4989935;28;20207;-76
2023/12/29 05:51:19;;;;;;;2.42;1.95;;;8.10;99.90;;;;;;4994752;28;20287;-76
2023/12/29 05:53:45;;;;;;;1.98;1.73;;;8.10;99.90;;;;;;4995077;28;20204;-76
2023/12/29 05:56:14;;;;;;;2.35;1.70;;;8.10;99.90;;;;;;4995118;28;20596;-76
2023/12/29 05:58:43;;;;;;;2.90;1.92;;;8.10;99.90;;;;;;4994842;28;20218;-76
2023/12/29 06:01:09;;;;;;;2.65;2.00;;;8.10;99.90;;;;;;4994792;28;20240;-78
2023/12/29 06:03:36;;;;;;;1.52;1.42;;;8.20;99.90;;;;;;4997237;28;20211;-78
2023/12/29 06:06:03;;;;;;;2.80;2.50;;;8.20;99.90;;;;;;4995518;28;20215;-76
2023/12/29 06:08:30;;;;;;;2.15;1.95;;;8.20;99.90;;;;;;4994576;28;20200;-77
2023/12/29 06:10:56;;;;;;;2.40;2.20;;;8.20;99.90;;;;;;4994548;28;20796;-77
2023/12/29 06:13:23;;;;;;;2.30;1.85;;;8.20;99.90;;;;;;4994974;28;20211;-76
2023/12/29 06:15:51;;;;;;;2.17;1.80;;;8.30;99.90;;;;;;4992787;28;20214;-76
2023/12/29 06:18:18;;;;;;;1.60;1.30;;;8.30;99.90;;;;;;4992896;28;20216;-76
2023/12/29 06:20:45;;;;;;;2.75;1.85;;;8.30;99.90;;;;;;4993626;28;20220;-77
2023/12/29 06:23:11;;;;;;;1.60;1.50;;;8.30;99.90;;;;;;4994476;28;20200;-77
2023/12/29 06:25:39;;;;;;;1.92;1.40;;;8.30;99.90;;;;;;4994250;28;20214;-77
2023/12/29 06:28:06;;;;;;;1.75;1.42;;;8.30;99.90;;;;;;4995457;28;20270;-77
2023/12/29 06:30:33;;;;;;;2.92;2.05;;;8.30;99.90;;;;;;4993906;28;20203;-76
2023/12/29 06:33:01;;;;;;;1.48;1.38;;;8.30;99.90;;;;;;4991550;28;20216;-76
2023/12/29 06:35:28;;;;;;;2.65;1.60;;;8.30;99.90;;;;;;4994182;28;20594;-76
2023/12/29 06:37:55;;;;;;;1.70;1.30;;;8.30;99.90;;;;;;4993521;28;20211;-76
2023/12/29 06:40:21;;;;;;;2.08;1.25;;;8.30;99.90;;;;;;4992991;28;20208;-76
2023/12/29 06:42:48;;;;;;;2.55;1.50;;;8.30;99.90;;;;;;4993820;28;20208;-76
2023/12/29 06:45:15;;;;;;;2.53;2.00;;;8.30;99.90;;;;;;4993625;28;20212;-76
2023/12/29 06:47:42;;;;;;;4.25;2.13;;;8.30;99.90;;;;;;4993491;28;20209;-76
2023/12/29 06:50:12;;;;;;;2.30;2.10;;;8.30;99.90;;;;;;4993680;28;20218;-76
2023/12/29 06:52:39;;;;;;;1.52;1.33;;;8.30;99.90;;;;;;4993420;28;20223;-76
2023/12/29 06:55:07;;;;;;;2.38;1.60;;;8.30;99.90;;;;;;4993800;28;20697;-76
2023/12/29 06:57:33;;;;;;;2.42;1.90;;;8.30;99.90;;;;;;4993427;28;20199;-76
2023/12/29 07:00:00;;;;;;;2.45;1.92;;;8.20;99.90;;;;;;4991004;28;20685;-76
2023/12/29 07:02:27;;;;;;;2.20;2.00;;;8.20;99.90;;;;;;4993204;28;20227;-76
2023/12/29 07:04:53;;;;;;;1.60;1.50;;;8.20;99.90;;;;;;4993571;28;20672;-76
2023/12/29 07:07:21;;;;;;;1.85;1.75;;;8.20;99.90;;;;;;4991079;28;20211;-76
2023/12/29 07:09:48;;;;;;;2.22;1.90;;;8.20;99.90;;;;;;4993301;28;20683;-76
2023/12/29 07:12:15;;;;;;;1.52;1.42;;;8.20;99.90;;;;;;4992988;28;20220;-76
2023/12/29 07:14:42;;;;;;;2.15;1.73;;;8.20;99.90;;;;;;4991807;28;20211;-76
2023/12/29 07:17:09;;;;;;;1.75;1.65;;;8.30;99.90;;;;;;4993194;28;20215;-76
2023/12/29 07:19:36;;;;;;;1.48;1.35;;;8.30;99.90;;;;;;4992784;28;20211;-76
2023/12/29 07:22:05;;;;;;;1.63;1.52;;;8.30;99.90;;;;;;4992617;28;20224;-76
2023/12/29 07:24:35;;;;;;;2.50;2.30;;;8.30;99.90;;;;;;4993098;28;20244;-76
2023/12/29 07:27:01;;;;;;;2.20;1.60;;;8.30;99.90;;;;;;4990486;28;20215;-76
2023/12/29 07:29:28;;;;;;;4.15;1.73;;;8.30;99.90;;;;;;4992726;28;20208;-76
2023/12/29 07:31:55;;;;;;;3.08;1.70;;;8.30;99.90;;;;;;4992474;28;20227;-76
2023/12/29 07:34:22;;;;;;;1.98;1.70;;;8.30;99.90;;;;;;4990674;28;20703;-75
2023/12/29 07:36:48;;;;;;;1.92;1.23;;;8.30;99.90;;;;;;4992444;28;20210;-74
2023/12/29 07:39:15;;;;;;;1.90;1.42;;;8.30;99.90;;;;;;4995249;28;20227;-77
2023/12/29 07:41:43;;;;;;;1.33;1.23;;;8.30;99.90;;;;;;4997515;28;20231;-77
2023/12/29 07:44:12;;;;;;;1.63;1.52;;;8.30;99.90;;;;;;4998684;28;20725;-77
2023/12/29 07:46:39;;;;;;;2.25;1.70;;;8.40;99.90;;;;;;4994374;28;20207;-77
2023/12/29 07:49:06;;;;;;;1.30;1.20;;;8.40;99.90;;;;;;4994294;28;20231;-77
2023/12/29 07:51:32;;;;;;;2.03;1.80;;;8.40;99.90;;;;;;4993386;28;20612;-77
2023/12/29 07:53:59;;;;;;;1.80;1.33;;;8.40;99.90;;;;;;4994143;28;20231;-77
2023/12/29 07:56:26;;;;;;;2.08;1.88;;;8.50;99.90;;;;;;4992342;28;20215;-74
2023/12/29 07:58:54;;;;;;;1.50;1.40;;;8.50;99.90;;;;;;4991323;28;20211;-76
2023/12/29 08:01:21;;;;;;;1.23;1.13;;;8.50;99.90;;;;;;4992472;28;20232;-77
2023/12/29 08:03:47;;;;;;;2.53;2.08;;;8.50;99.90;;;;;;4996026;28;20215;-77
2023/12/29 08:06:14;;;;;;;2.33;1.80;;;8.50;99.90;;;;;;4996993;28;20208;-77
2023/12/29 08:08:41;;;;;;;3.75;1.65;;;8.60;99.90;;;;;;4995404;28;20296;-77
2023/12/29 08:11:14;;;;;;;2.03;1.50;;;8.60;99.90;;;;;;4993668;28;20221;-77
2023/12/29 08:13:41;;;;;;;1.75;1.65;;;8.60;99.90;;;;;;4993553;28;20204;-77
2023/12/29 08:16:09;;;;;;;2.13;1.73;;;8.60;99.90;;;;;;4995047;28;20602;-77
2023/12/29 08:18:36;;;;;;;3.33;1.75;;;8.60;99.90;;;;;;4994359;28;20213;-76
2023/12/29 08:21:03;;;;;;;2.22;1.63;;;8.60;99.90;;;;;;4994618;28;20228;-77
2023/12/29 08:23:29;;;;;;;1.40;1.30;;;8.70;99.90;;;;;;4995102;28;20208;-77
2023/12/29 08:25:58;;;;;;;2.17;1.55;;;8.70;99.90;;;;;;4993946;28;20672;-78
2023/12/29 08:28:24;;;;;;;1.60;1.20;;;8.70;99.90;;;;;;4993467;28;20217;-77
2023/12/29 08:30:51;;;;;;;1.73;1.48;;;8.70;99.90;;;;;;4992233;28;20771;-77
2023/12/29 08:33:19;;;;;;;1.73;1.50;;;8.70;99.90;;;;;;4993239;28;20218;-77
2023/12/29 08:35:46;;;;;;;2.55;2.30;;;8.70;99.90;;;;;;4992138;28;20209;-77
2023/12/29 08:38:13;;;;;;;3.05;1.65;;;8.80;99.90;;;;;;4993795;28;20286;-77
2023/12/29 08:40:40;;;;;;;2.95;1.90;;;8.90;99.90;;;;;;4993744;28;20241;-78
2023/12/29 08:43:07;;;;;;;2.20;1.50;;;8.90;99.90;;;;;;4995446;28;20219;-77
2023/12/29 08:45:35;;;;;;;2.20;1.58;;;9.00;99.90;;;;;;4993428;28;20196;-78
2023/12/29 08:48:01;;;;;;;2.33;2.13;;;8.90;99.90;;;;;;4992481;28;20269;-74
2023/12/29 08:50:31;;;;;;;2.25;1.77;;;9.00;99.90;;;;;;4990994;28;20211;-74
2023/12/29 08:52:57;;;;;;;2.05;1.85;;;9.00;99.90;;;;;;4991452;28;20585;-74
2023/12/29 08:55:24;;;;;;;2.28;1.70;;;9.10;99.90;;;;;;4991738;28;20204;-74
2023/12/29 08:57:51;;;;;;;2.42;1.98;;;9.10;99.90;;;;;;4991339;28;20209;-73
2023/12/29 09:00:18;;;;;;;2.70;1.88;;;9.10;99.90;;;;;;4991532;28;20212;-74
2023/12/29 09:02:46;;;;;;;1.63;1.23;;;9.10;99.90;;;;;;4991537;28;20220;-74
2023/12/29 09:05:13;;;;;;;1.58;1.30;;;9.10;99.90;;;;;;4991451;28;20209;-75
2023/12/29 09:07:41;;;;;;;1.38;1.23;;;9.10;99.90;;;;;;4991629;28;20212;-76
2023/12/29 09:10:11;;;;;;;1.60;1.40;;;9.00;99.90;;;;;;4992195;28;20212;-76
2023/12/29 09:12:38;;;;;;;1.60;1.50;;;9.00;99.90;;;;;;4991656;28;20287;-75
2023/12/29 09:15:06;;;;;;;1.80;1.70;;;9.00;99.90;;;;;;4992095;28;20278;-76
2023/12/29 09:17:32;;;;;;;1.60;1.50;;;9.00;99.90;;;;;;4992488;28;20210;-78
2023/12/29 09:19:59;;;;;;;1.80;1.70;;;9.00;99.90;;;;;;4993917;28;20210;-79
2023/12/29 09:22:26;;;;;;;1.85;1.75;;;9.00;99.90;;;;;;4993008;28;20248;-79
2023/12/29 09:24:55;;;;;;;1.20;1.10;;;9.10;99.90;;;;;;4980985;28;20242;-76
2023/12/29 09:27:21;;;;;;;1.42;1.20;;;9.20;99.90;;;;;;4987397;28;20701;-76
2023/12/29 09:29:48;;;;;;;1.42;1.30;;;9.30;99.90;;;;;;4990785;28;20208;-76
2023/12/29 09:32:15;;;;;;;1.30;1.20;;;9.30;99.90;;;;;;4990218;28;20230;-76
2023/12/29 09:34:42;;;;;;;4.10;1.58;;;9.40;99.90;;;;;;4990822;28;20221;-76
2023/12/29 09:37:09;;;;;;;2.95;1.42;;;9.40;99.90;;;;;;4991584;28;20218;-76
2023/12/29 09:39:35;;;;;;;1.60;1.50;;;9.50;99.90;;;;;;4990783;28;20210;-76
2023/12/29 09:42:06;;;;;;;1.50;1.40;;;9.50;99.90;;;;;;4990860;28;20236;-77
2023/12/29 09:44:34;;;;;;;2.03;1.85;;;9.70;99.90;;;;;;4991632;28;20567;-77
2023/12/29 09:47:02;;;;;;;2.25;2.05;;;10.10;99.90;;;;;;4991814;28;20217;-77
2023/12/29 09:49:34;;;;;;;1.75;1.60;;;10.50;99.90;;;;;;4991322;28;20572;-77
2023/12/29 09:52:03;;;;;;;2.05;1.73;;;11.10;99.90;;;;;;4991477;28;20293;-79
2023/12/29 09:54:30;;;;;;;1.67;1.58;;;11.00;99.90;;;;;;4991733;28;20276;-79
2023/12/29 09:56:57;;;;;;;1.35;1.10;;;10.80;99.90;;;;;;4992029;28;20211;-79
2023/12/29 09:59:27;;;;;;;1.60;1.50;;;10.60;99.90;;;;;;4992159;28;20214;-75
2023/12/29 10:01:55;;;;;;;1.90;1.40;;;10.50;99.90;;;;;;4984430;28;20233;-78
2023/12/29 10:04:22;;;;;;;1.35;1.10;;;10.40;99.90;;;;;;4993684;28;20222;-78
2023/12/29 10:06:51;;;;;;;2.35;1.40;;;10.10;99.90;;;;;;4993231;28;20216;-77
2023/12/29 10:09:21;;;;;;;1.60;1.50;;;10.00;99.90;;;;;;4992572;28;20218;-78
2023/12/29 10:11:48;;;;;;;1.65;1.20;;;10.00;99.90;;;;;;4990966;28;20249;-77
2023/12/29 10:14:24;;;;;;;2.55;1.15;;;10.00;99.90;;;;;;4991523;28;20236;-77
2023/12/29 10:17:00;;;;;;;1.77;1.60;;;10.30;99.90;;;;;;4993187;28;20209;-77
2023/12/29 10:19:36;;;;;;;2.20;1.40;;;11.10;99.90;;;;;;4994205;28;20686;-77
2023/12/29 10:22:11;;;;;;;1.77;1.38;;;11.50;99.90;;;;;;4993845;28;20325;-77
2023/12/29 10:24:38;;;;;;;1.20;1.10;;;11.90;99.90;;;;;;4994636;28;20286;-77
2023/12/29 10:27:05;;;;;;;1.70;1.40;;;12.10;99.90;;;;;;4995022;28;20647;-77
2023/12/29 10:29:32;;;;;;;1.30;1.20;;;13.00;99.90;;;;;;4994340;28;20589;-76
2023/12/29 10:32:01;;;;;;;1.23;1.10;;;14.70;99.90;;;;;;4990177;28;20759;-76
2023/12/29 10:34:29;;;;;;;1.40;1.30;;;15.90;99.90;;;;;;4992560;28;20468;-77
2023/12/29 10:36:57;;;;;;;1.17;1.07;;;17.50;99.90;;;;;;4994481;28;20985;-76
2023/12/29 10:39:23;;;;;;;0.93;0.83;;;18.50;99.90;;;;;;4993010;28;20454;-76
2023/12/29 10:41:50;;;;;;;2.27;1.20;;;19.30;99.90;;;;;;4990805;28;20578;-75
2023/12/29 10:44:18;;;;;;;3.30;1.10;;;20.40;99.90;;;;;;4994035;28;20463;-76
2023/12/29 10:46:45;;;;;;;1.20;1.10;;;20.50;99.90;;;;;;4991855;28;20971;-76
2023/12/29 10:49:14;;;;;;;1.40;1.30;;;20.90;99.90;;;;;;4993343;28;20545;-76
2023/12/29 10:51:41;;;;;;;1.20;1.00;;;21.70;99.90;;;;;;4992254;28;20494;-76
2023/12/29 10:54:08;;;;;;;1.30;1.20;;;21.70;99.90;;;;;;4993356;28;20470;-76
2023/12/29 10:56:35;;;;;;;1.43;1.30;;;22.80;99.90;;;;;;4993083;28;20472;-77
2023/12/29 10:59:03;;;;;;;1.27;1.17;;;22.70;99.90;;;;;;4993965;28;20459;-77
2023/12/29 11:01:31;;;;;;;1.50;1.20;;;23.50;99.90;;;;;;4992569;28;20482;-77
2023/12/29 11:03:59;;;;;;;1.20;1.10;;;24.10;99.90;;;;;;4993186;28;20482;-77
2023/12/29 11:06:28;;;;;;;1.67;1.20;;;23.70;99.90;;;;;;4992896;28;20517;-77
2023/12/29 11:08:55;;;;;;;1.10;1.00;;;24.00;99.90;;;;;;4986897;28;20462;-77
2023/12/29 11:11:23;;;;;;;1.77;1.23;;;24.60;99.90;;;;;;4992934;28;20478;-77
2023/12/29 11:13:51;;;;;;;1.30;1.20;;;25.20;98.80;;;;;;4990055;28;20842;-77
2023/12/29 11:16:21;;;;;;;1.10;1.00;;;25.50;98.60;;;;;;4993359;28;20466;-77
2023/12/29 11:18:50;;;;;;;1.50;1.30;;;25.10;98.50;;;;;;4992526;28;20466;-77
2023/12/29 11:21:18;;;;;;;1.13;1.03;;;24.70;97.90;;;;;;4992673;28;20482;-77
2023/12/29 11:23:48;;;;;;;1.67;1.00;;;23.90;97.80;;;;;;4992495;28;20490;-77
2023/12/29 11:26:16;;;;;;;1.30;1.10;;;23.10;98.00;;;;;;4993991;28;20473;-76
2023/12/29 11:28:44;;;;;;;1.00;0.90;;;21.90;99.40;;;;;;4992687;28;20481;-77
2023/12/29 11:31:11;;;;;;;1.43;1.23;;;20.90;99.90;;;;;;4992765;28;20500;-77
2023/12/29 11:33:41;;;;;;;1.63;1.47;;;20.40;99.90;;;;;;4993052;28;20517;-76
2023/12/29 11:36:13;;;;;;;1.10;1.00;;;19.70;99.90;;;;;;4992724;28;20555;-76
2023/12/29 11:38:58;;;;;;;1.90;1.10;;;19.20;99.90;;;;;;4993106;28;20483;-77
2023/12/29 11:41:34;;;;;;;1.07;0.90;;;18.70;99.90;;;;;;4995743;28;20584;-77
2023/12/29 11:44:02;;;;;;;1.97;1.30;;;17.80;99.90;;;;;;4987811;28;20524;-77
2023/12/29 11:46:36;;;;;;;1.40;1.20;;;16.80;99.90;;;;;;4993279;28;20573;-76
2023/12/29 11:49:04;;;;;;;1.00;0.90;;;16.20;99.90;;;;;;4992532;28;20470;-76
2023/12/29 11:51:33;;;;;;;1.10;1.00;;;15.60;99.90;;;;;;4992418;28;20533;-77
2023/12/29 11:54:02;;;;;;;1.37;1.23;;;15.20;99.90;;;;;;4992068;28;20541;-76
2023/12/29 11:56:33;;;;;;;1.20;1.10;;;15.00;99.90;;;;;;4991742;28;20561;-77
2023/12/29 11:59:14;;;;;;;2.00;1.13;;;14.80;99.90;;;;;;4991264;28;20465;-77
2023/12/29 12:01:41;;;;;;;1.73;1.30;;;14.80;99.90;;;;;;4989584;28;20489;-77
2023/12/29 12:04:36;;;;;;;1.13;0.90;;;14.90;99.90;;;;;;4991769;28;20489;-77
2023/12/29 12:07:03;;;;;;;1.00;0.90;;;14.70;99.90;;;;;;4984999;28;20463;-77
2023/12/29 12:09:31;;;;;;;1.97;1.00;;;14.50;99.90;;;;;;4991288;28;20477;-77
2023/12/29 12:11:58;;;;;;;1.20;1.10;;;14.20;99.90;;;;;;4991025;28;20984;-77
2023/12/29 12:14:47;;;;;;;1.10;1.00;;;14.00;99.90;;;;;;4991794;28;20473;-77
2023/12/29 12:17:28;;;;;;;2.65;1.20;;;13.70;99.90;;;;;;4986261;28;20545;-77
2023/12/29 12:19:58;;;;;;;1.83;1.20;;;13.40;99.90;;;;;;4983936;28;20220;-77
2023/12/29 12:22:26;;;;;;;1.30;1.20;;;13.00;99.90;;;;;;4990831;28;20238;-76
2023/12/29 12:24:58;;;;;;;1.20;1.00;;;12.60;99.90;;;;;;4991216;28;20205;-77
2023/12/29 12:27:26;;;;;;;1.20;1.10;;;12.40;99.90;;;;;;4990977;28;20239;-76
2023/12/29 12:29:59;;;;;;;1.20;1.10;;;12.50;99.90;;;;;;4983771;28;20218;-77
2023/12/29 12:32:26;;;;;;;1.58;1.10;;;12.70;99.90;;;;;;4983403;28;20247;-77
2023/12/29 12:34:53;;;;;;;1.15;0.95;;;13.00;99.90;;;;;;4971917;28;20685;-76
2023/12/29 12:37:22;;;;;;;1.10;1.00;;;13.10;99.90;;;;;;4979416;28;20214;-76
2023/12/29 12:39:49;;;;;;;1.85;1.50;;;13.20;99.90;;;;;;4970957;28;20217;-76
2023/12/29 12:42:18;;;;;;;1.27;1.17;;;13.30;99.90;;;;;;4971258;28;20709;-76
2023/12/29 12:44:51;;;;;;;1.05;0.95;;;13.50;99.90;;;;;;4979181;28;20239;-76
2023/12/29 12:47:33;;;;;;;1.20;1.10;;;13.10;99.90;;;;;;4971746;28;20217;-76
2023/12/29 12:50:03;;;;;;;1.38;1.15;;;13.10;99.90;;;;;;4972441;28;20474;-76
2023/12/29 12:52:34;;;;;;;1.90;1.20;;;13.30;99.90;;;;;;4970725;28;20228;-76
2023/12/29 12:55:01;;;;;;;2.85;1.40;;;13.40;99.90;;;;;;4971601;28;20208;-76
2023/12/29 12:57:30;;;;;;;1.10;1.00;;;13.20;99.90;;;;;;4979354;28;20217;-76
2023/12/29 12:59:57;;;;;;;1.50;1.13;;;13.40;99.90;;;;;;4971553;28;20205;-76
2023/12/29 13:02:26;;;;;;;1.45;1.20;;;13.50;99.90;;;;;;4960940;28;20229;-76
2023/12/29 13:04:53;;;;;;;1.45;1.20;;;13.60;99.90;;;;;;4972339;28;20210;-76
2023/12/29 13:07:21;;;;;;;2.45;1.33;;;13.60;99.90;;;;;;4970424;28;20215;-76
2023/12/29 13:09:50;;;;;;;1.20;1.10;;;13.70;99.90;;;;;;4971198;28;20217;-76
2023/12/29 13:12:17;;;;;;;1.30;1.20;;;13.80;99.90;;;;;;4971012;28;20496;-77
2023/12/29 13:14:46;;;;;;;1.30;1.20;;;13.70;99.90;;;;;;4971152;28;20293;-77
2023/12/29 13:17:15;;;;;;;1.45;1.10;;;13.50;99.90;;;;;;4971914;28;20594;-76
2023/12/29 13:19:43;;;;;;;1.38;1.23;;;13.10;99.90;;;;;;4971946;28;20611;-77
2023/12/29 13:22:11;;;;;;;1.10;0.90;;;12.90;99.90;;;;;;4971750;28;20327;-77
2023/12/29 13:24:44;;;;;;;1.20;1.10;;;12.80;99.90;;;;;;4971716;28;20720;-77
2023/12/29 13:27:12;;;;;;;2.47;0.90;;;12.70;99.90;;;;;;4972401;28;20247;-77
2023/12/29 13:29:40;;;;;;;1.10;1.00;;;12.60;99.90;;;;;;4973524;28;20353;-77
2023/12/29 13:32:15;;;;;;;1.50;1.40;;;12.50;99.90;;;;;;4987248;28;20234;-75
2023/12/29 13:34:51;;;;;;;1.55;1.02;;;12.40;99.90;;;;;;4992914;28;20237;-77
2023/12/29 13:37:26;;;;;;;1.75;1.10;;;12.30;99.90;;;;;;4992531;28;20221;-76
2023/12/29 13:40:03;;;;;;;1.50;1.40;;;12.20;99.90;;;;;;4992736;28;20207;-77
2023/12/29 13:42:32;;;;;;;1.98;1.20;;;12.10;99.90;;;;;;4991380;28;20491;-77
2023/12/29 13:45:00;;;;;;;1.63;1.35;;;12.10;99.90;;;;;;4983376;28;20246;-77
2023/12/29 13:47:28;;;;;;;1.00;0.90;;;12.00;99.90;;;;;;4990457;28;20602;-76
2023/12/29 13:49:55;;;;;;;1.33;1.10;;;12.00;99.90;;;;;;4990297;28;20207;-75
2023/12/29 13:52:22;;;;;;;1.90;1.27;;;11.90;99.90;;;;;;4994696;28;20231;-79
2023/12/29 13:54:50;;;;;;;1.30;1.20;;;11.90;99.90;;;;;;4996315;28;20206;-76
2023/12/29 13:57:16;;;;;;;1.30;1.20;;;11.80;99.90;;;;;;4995234;28;20216;-79
2023/12/29 13:59:43;;;;;;;1.80;1.13;;;11.90;99.90;;;;;;4996050;28;20211;-78
2023/12/29 14:02:29;;;;;;;1.27;1.17;;;11.80;99.90;;;;;;4996359;28;20227;-77
2023/12/29 14:05:24;;;;;;;2.00;1.20;;;11.80;99.90;;;;;;4995223;28;20278;-77
2023/12/29 14:07:59;;;;;;;3.17;1.60;;;11.70;99.90;;;;;;4995522;28;20243;-77
2023/12/29 14:10:31;;;;;;;1.70;1.15;;;11.70;99.90;;;;;;4995051;28;20207;-77
2023/12/29 14:13:05;;;;;;;1.20;1.10;;;11.80;99.90;;;;;;4988295;28;20338;-78
2023/12/29 14:15:38;;;;;;;1.70;1.40;;;11.80;99.90;;;;;;4996567;28;20217;-77
2023/12/29 14:18:18;;;;;;;1.30;0.93;;;11.80;99.90;;;;;;4995591;28;20207;-78
2023/12/29 14:20:46;;;;;;;1.73;1.40;;;11.70;99.90;;;;;;4995247;28;20230;-78
2023/12/29 14:23:14;;;;;;;1.27;1.17;;;11.70;99.90;;;;;;4995962;28;20226;-77
2023/12/29 14:25:41;;;;;;;1.00;0.90;;;11.70;99.90;;;;;;4995753;28;20758;-78
2023/12/29 14:28:16;;;;;;;2.03;1.38;;;11.60;99.90;;;;;;4999591;28;20207;-77
2023/12/29 14:30:43;;;;;;;1.75;1.65;;;11.60;99.90;;;;;;5012022;28;20278;-77
2023/12/29 14:33:10;;;;;;;1.38;1.27;;;11.60;99.90;;;;;;5015705;28;20214;-77
2023/12/29 14:35:36;;;;;;;1.33;1.05;;;11.70;99.90;;;;;;5015435;28;20282;-78
2023/12/29 14:38:05;;;;;;;1.15;1.00;;;11.60;99.90;;;;;;5016474;28;20218;-79
2023/12/29 14:40:34;;;;;;;2.35;1.65;;;11.50;99.90;;;;;;5016018;28;20195;-79
2023/12/29 14:43:01;;;;;;;1.30;1.20;;;11.40;99.90;;;;;;5017401;28;20207;-78
2023/12/29 14:45:29;;;;;;;1.33;1.23;;;11.40;99.90;;;;;;5016412;28;20306;-82
2023/12/29 14:47:56;;;;;;;1.70;1.30;;;11.40;99.90;;;;;;5016371;28;20211;-80
2023/12/29 14:50:23;;;;;;;1.20;1.10;;;11.50;99.90;;;;;;5014154;28;20223;-77
2023/12/29 14:52:50;;;;;;;1.10;1.00;;;11.50;99.90;;;;;;5001987;28;20218;-78
2023/12/29 14:55:18;;;;;;;1.30;1.02;;;11.50;99.90;;;;;;4995797;28;20218;-78
2023/12/29 14:57:45;;;;;;;1.35;1.15;;;11.40;99.90;;;;;;4994820;28;20253;-78
2023/12/29 15:00:16;;;;;;;1.80;1.40;;;11.40;99.90;;;;;;4996335;28;20215;-77
2023/12/29 15:02:43;;;;;;;1.83;1.35;;;11.40;99.90;;;;;;4995678;28;20200;-78
2023/12/29 15:05:10;;;;;;;1.55;1.40;;;11.40;99.90;;;;;;4996308;28;20219;-78
2023/12/29 15:07:37;;;;;;;1.65;1.10;;;11.30;99.90;;;;;;4995192;28;20609;-78
2023/12/29 15:10:04;;;;;;;1.80;1.40;;;11.30;99.90;;;;;;4996143;28;20211;-78
2023/12/29 15:12:32;;;;;;;1.10;1.00;;;11.30;99.90;;;;;;4995225;28;20250;-79
2023/12/29 15:14:59;;;;;;;1.48;1.23;;;11.20;99.90;;;;;;4997669;28;20261;-80
2023/12/29 15:17:30;;;;;;;2.65;1.70;;;11.10;99.90;;;;;;4997202;28;20211;-85
2023/12/29 15:19:56;;;;;;;2.45;1.20;;;11.10;99.90;;;;;;4997915;28;20207;-81
2023/12/29 15:22:26;;;;;;;1.55;1.42;;;11.00;99.90;;;;;;4998305;28;20235;-80
2023/12/29 15:24:52;;;;;;;2.55;1.88;;;10.90;99.90;;;;;;4998208;28;20230;-82
2023/12/29 15:27:21;;;;;;;1.20;1.10;;;10.90;99.90;;;;;;4999613;28;20242;-82
2023/12/29 15:29:49;;;;;;;1.60;1.40;;;10.80;99.90;;;;;;4997204;28;20226;-83
2023/12/29 15:32:16;;;;;;;1.20;1.10;;;10.70;99.90;;;;;;4997681;28;20302;-81
2023/12/29 15:34:42;;;;;;;1.27;1.17;;;10.60;99.90;;;;;;4997227;28;20222;-80
2023/12/29 15:37:12;;;;;;;2.10;1.30;;;10.50;99.90;;;;;;4998599;28;20237;-80
2023/12/29 15:39:41;;;;;;;1.40;1.30;;;10.50;99.90;;;;;;4997691;28;20297;-80
2023/12/29 15:42:08;;;;;;;1.98;1.42;;;10.40;99.90;;;;;;4997295;28;20435;-82
2023/12/29 15:44:35;;;;;;;1.10;1.00;;;10.30;99.90;;;;;;4996387;28;20725;-82
2023/12/29 15:47:03;;;;;;;2.15;1.50;;;10.30;99.90;;;;;;4998003;28;20211;-81
2023/12/29 15:49:30;;;;;;;1.98;1.77;;;10.20;99.90;;;;;;4993638;28;20216;-81
2023/12/29 15:51:58;;;;;;;1.98;1.23;;;10.20;99.90;;;;;;4997721;28;20245;-79
2023/12/29 15:54:25;;;;;;;1.90;1.50;;;10.20;99.90;;;;;;5003737;28;20210;-80
2023/12/29 15:56:52;;;;;;;1.50;1.33;;;10.10;99.90;;;;;;5001350;28;20326;-80
2023/12/29 15:59:18;;;;;;;1.40;1.30;;;10.10;99.90;;;;;;5001376;28;20347;-81
2023/12/29 16:01:45;;;;;;;1.80;1.42;;;10.00;99.90;;;;;;4999678;28;20853;-82
2023/12/29 16:04:14;;;;;;;1.50;1.25;;;10.00;99.90;;;;;;5000950;28;20253;-82
2023/12/29 16:06:40;;;;;;;1.45;1.30;;;9.90;99.90;;;;;;5001657;28;20687;-82
2023/12/29 16:09:07;;;;;;;3.00;1.70;;;9.90;99.90;;;;;;4999357;28;20592;-81
2023/12/29 16:11:34;;;;;;;1.42;1.27;;;9.70;99.90;;;;;;4999870;28;20250;-80
2023/12/29 16:14:00;;;;;;;4.45;1.73;;;9.70;99.90;;;;;;5000642;28;20208;-80
2023/12/29 16:16:30;;;;;;;2.50;1.67;;;9.70;99.90;;;;;;5000696;28;20215;-81
2023/12/29 16:18:57;;;;;;;2.03;1.75;;;9.60;99.90;;;;;;4994522;28;20214;-80
2023/12/29 16:21:26;;;;;;;2.55;1.75;;;9.60;99.90;;;;;;4994873;28;20489;-80
2023/12/29 16:23:52;;;;;;;2.10;1.20;;;9.50;99.90;;;;;;4996949;28;20235;-80
2023/12/29 16:26:20;;;;;;;2.13;1.35;;;9.40;99.90;;;;;;4996297;28;20202;-80
2023/12/29 16:28:47;;;;;;;1.42;1.30;;;9.40;99.90;;;;;;4998271;28;20210;-80
2023/12/29 16:31:13;;;;;;;1.27;1.17;;;9.30;99.90;;;;;;4998630;28;20232;-80
2023/12/29 16:33:40;;;;;;;3.40;1.83;;;9.30;99.90;;;;;;4997420;28;20210;-80
2023/12/29 16:36:09;;;;;;;2.20;2.10;;;9.20;99.90;;;;;;4997396;28;20217;-80
2023/12/29 16:38:37;;;;;;;1.50;1.40;;;9.10;99.90;;;;;;4998228;28;20209;-79
2023/12/29 16:41:05;;;;;;;1.63;1.52;;;9.00;99.90;;;;;;4993389;28;20285;-79
2023/12/29 16:43:32;;;;;;;2.53;1.60;;;8.90;99.90;;;;;;4997414;28;20213;-79
2023/12/29 16:45:59;;;;;;;1.92;1.38;;;8.90;99.90;;;;;;4995620;28;20213;-79
2023/12/29 16:48:26;;;;;;;1.45;1.25;;;8.80;99.90;;;;;;4996256;28;20293;-80
2023/12/29 16:50:53;;;;;;;2.13;1.65;;;8.70;99.90;;;;;;4995315;28;20699;-79
2023/12/29 16:53:22;;;;;;;1.92;1.60;;;8.70;99.90;;;;;;4987796;28;20263;-78
2023/12/29 16:55:50;;;;;;;1.70;1.60;;;8.70;99.90;;;;;;4991721;28;20693;-79
2023/12/29 16:58:19;;;;;;;1.92;1.73;;;8.60;99.90;;;;;;4992580;28;20271;-79
2023/12/29 17:00:46;;;;;;;2.00;1.80;;;8.60;99.90;;;;;;4992140;28;20919;-79
2023/12/29 17:03:13;;;;;;;2.65;1.67;;;8.50;99.90;;;;;;4992600;28;20214;-79
2023/12/29 17:05:40;;;;;;;1.90;1.55;;;8.40;99.90;;;;;;4991789;28;20231;-78
2023/12/29 17:08:07;;;;;;;2.13;1.92;;;8.40;99.90;;;;;;4992198;28;20577;-78
2023/12/29 17:10:34;;;;;;;1.50;1.20;;;8.30;99.90;;;;;;4993953;28;20324;-79
2023/12/29 17:13:02;;;;;;;1.70;1.55;;;8.30;99.90;;;;;;4994626;28;20586;-78
2023/12/29 17:15:29;;;;;;;1.90;1.55;;;8.30;99.90;;;;;;4992243;28;20208;-78